Time;durP1;ratioP1;P1;durP2;ratioP2;P2;SDS_P1;SDS_P2;PMS_P1;PMS_P2;Temp;Humidity;BMP_temperature;BMP_pressure;BME280_temperature;BME280_humidity;BME280_pressure;Samples;Min_cycle;Max_cycle;Signal;HPM_P1;HPM_P2
2023/08/17 00:02:13;;;;;;;4.72;2.00;;;19.00;99.90;;;;;;5033942;28;20461;-81
2023/08/17 00:04:39;;;;;;;4.47;1.95;;;18.90;99.90;;;;;;5034266;28;20025;-81
2023/08/17 00:07:05;;;;;;;3.42;2.00;;;19.20;99.90;;;;;;5034577;28;20036;-81
2023/08/17 00:09:30;;;;;;;6.13;2.28;;;19.10;99.90;;;;;;5033665;28;20029;-81
2023/08/17 00:11:56;;;;;;;7.60;2.10;;;19.10;99.90;;;;;;5034362;28;20428;-82
2023/08/17 00:14:21;;;;;;;3.63;1.70;;;18.80;99.90;;;;;;5034975;28;20043;-81
2023/08/17 00:16:49;;;;;;;4.55;1.80;;;18.80;99.90;;;;;;5033834;28;20017;-81
2023/08/17 00:19:15;;;;;;;7.00;1.85;;;18.70;99.90;;;;;;5034408;28;20048;-81
2023/08/17 00:21:40;;;;;;;4.60;1.90;;;18.70;99.90;;;;;;5033944;28;20029;-82
2023/08/17 00:24:06;;;;;;;3.28;1.92;;;18.80;99.90;;;;;;5033505;28;20032;-81
2023/08/17 00:26:31;;;;;;;3.88;1.83;;;18.80;99.90;;;;;;5033989;28;20022;-81
2023/08/17 00:28:57;;;;;;;3.38;1.75;;;18.80;99.90;;;;;;5034389;28;20077;-81
2023/08/17 00:31:23;;;;;;;2.22;1.80;;;19.00;99.90;;;;;;5032682;28;20367;-81
2023/08/17 00:33:48;;;;;;;6.95;2.50;;;18.70;99.90;;;;;;5033766;28;20037;-81
2023/08/17 00:36:14;;;;;;;6.47;2.45;;;18.70;99.90;;;;;;5034129;28;20025;-81
2023/08/17 00:38:40;;;;;;;5.68;2.47;;;18.70;99.90;;;;;;5032979;28;20025;-81
2023/08/17 00:41:06;;;;;;;5.95;2.63;;;18.70;99.90;;;;;;5034018;28;20044;-81
2023/08/17 00:43:32;;;;;;;6.93;2.90;;;18.70;99.90;;;;;;5033602;28;20453;-81
2023/08/17 00:45:57;;;;;;;6.10;2.30;;;18.90;99.90;;;;;;5032979;28;20026;-81
2023/08/17 00:48:24;;;;;;;2.47;1.77;;;18.70;99.90;;;;;;5034035;28;20038;-81
2023/08/17 00:50:52;;;;;;;2.03;1.83;;;18.70;99.90;;;;;;5033563;28;20108;-81
2023/08/17 00:53:19;;;;;;;5.47;2.42;;;19.20;99.90;;;;;;5033059;28;20036;-82
2023/08/17 00:55:45;;;;;;;7.55;2.30;;;18.60;99.90;;;;;;5033293;28;20067;-82
2023/08/17 00:58:11;;;;;;;6.03;2.80;;;18.60;99.90;;;;;;5033831;28;20033;-81
2023/08/17 01:00:37;;;;;;;3.30;2.10;;;18.60;99.90;;;;;;5032612;28;20079;-81
2023/08/17 01:03:03;;;;;;;5.05;2.30;;;18.60;99.90;;;;;;5033593;28;20362;-81
2023/08/17 01:05:32;;;;;;;4.95;2.10;;;18.50;99.90;;;;;;5032625;28;20025;-81
2023/08/17 01:07:58;;;;;;;3.30;2.22;;;18.50;99.90;;;;;;5033194;28;20481;-81
2023/08/17 01:10:35;;;;;;;6.22;2.13;;;18.50;99.90;;;;;;5033326;28;20029;-82
2023/08/17 01:13:11;;;;;;;4.45;2.28;;;18.50;99.90;;;;;;5032925;28;20032;-82
2023/08/17 01:15:40;;;;;;;5.45;2.90;;;18.80;99.90;;;;;;5033185;28;20024;-81
2023/08/17 01:18:26;;;;;;;4.30;2.25;;;18.90;99.90;;;;;;5033206;28;20034;-81
2023/08/17 01:20:53;;;;;;;2.97;2.28;;;18.40;99.90;;;;;;5032139;28;20068;-81
2023/08/17 01:23:19;;;;;;;3.78;2.03;;;18.40;99.90;;;;;;5033156;28;20067;-81
2023/08/17 01:25:45;;;;;;;3.92;2.20;;;18.40;99.90;;;;;;5032933;28;20057;-81
2023/08/17 01:28:11;;;;;;;5.15;2.72;;;18.40;99.90;;;;;;5032212;28;20497;-81
2023/08/17 01:30:54;;;;;;;6.07;2.30;;;18.40;99.90;;;;;;5032542;28;20107;-82
2023/08/17 01:33:52;;;;;;;5.90;2.55;;;18.50;99.90;;;;;;5032992;28;20033;-82
2023/08/17 01:36:26;;;;;;;2.03;1.83;;;18.40;99.90;;;;;;5029072;28;20135;-81
2023/08/17 01:38:54;;;;;;;4.13;2.38;;;18.40;99.90;;;;;;5032549;28;20109;-81
2023/08/17 01:41:22;;;;;;;5.25;2.17;;;18.40;99.90;;;;;;5032153;28;20104;-81
2023/08/17 01:43:48;;;;;;;5.88;2.03;;;18.40;99.90;;;;;;5031580;28;20029;-82
2023/08/17 01:46:15;;;;;;;3.90;2.38;;;18.40;99.90;;;;;;5032880;28;20044;-81
2023/08/17 01:48:41;;;;;;;5.18;2.03;;;18.40;99.90;;;;;;5031513;28;20033;-82
2023/08/17 01:51:07;;;;;;;8.63;2.30;;;19.10;99.90;;;;;;5032658;28;20022;-82
2023/08/17 01:53:33;;;;;;;6.82;2.60;;;18.30;99.90;;;;;;5032314;28;20025;-81
2023/08/17 01:55:58;;;;;;;3.17;2.20;;;18.30;99.90;;;;;;5031740;28;20033;-81
2023/08/17 01:58:24;;;;;;;5.53;2.13;;;18.30;99.90;;;;;;5032490;28;20029;-81
2023/08/17 02:00:50;;;;;;;4.03;2.10;;;18.30;99.90;;;;;;5032629;28;20025;-81
2023/08/17 02:03:15;;;;;;;4.90;2.25;;;18.30;99.90;;;;;;5031881;28;20056;-81
2023/08/17 02:05:45;;;;;;;4.78;2.05;;;18.30;99.90;;;;;;5032132;28;20462;-82
2023/08/17 02:08:10;;;;;;;8.47;2.67;;;18.20;99.90;;;;;;5032261;28;20087;-81
2023/08/17 02:10:36;;;;;;;3.08;2.42;;;18.30;99.90;;;;;;5031101;28;20272;-81
2023/08/17 02:13:02;;;;;;;5.80;2.78;;;18.30;99.90;;;;;;5032196;28;20032;-81
2023/08/17 02:15:28;;;;;;;5.55;2.35;;;18.20;99.90;;;;;;5032389;28;20025;-81
2023/08/17 02:17:53;;;;;;;4.63;2.50;;;18.30;99.90;;;;;;5031342;28;20022;-81
2023/08/17 02:20:19;;;;;;;7.07;2.58;;;18.20;99.90;;;;;;5032142;28;20123;-81
2023/08/17 02:22:45;;;;;;;3.97;1.90;;;18.10;99.90;;;;;;5031117;28;20018;-81
2023/08/17 02:25:10;;;;;;;4.75;2.28;;;18.10;99.90;;;;;;5031884;28;20384;-81
2023/08/17 02:27:36;;;;;;;2.95;2.65;;;18.10;99.90;;;;;;5031820;28;20503;-81
2023/08/17 02:30:06;;;;;;;8.43;2.58;;;18.00;99.90;;;;;;5031054;28;20049;-81
2023/08/17 02:32:31;;;;;;;7.70;2.23;;;18.00;99.90;;;;;;5031949;28;20029;-81
2023/08/17 02:34:57;;;;;;;4.65;2.30;;;18.00;99.90;;;;;;5031930;28;20376;-81
2023/08/17 02:37:22;;;;;;;6.30;2.00;;;18.00;99.90;;;;;;5031301;28;20057;-81
2023/08/17 02:39:48;;;;;;;3.85;2.13;;;18.60;99.90;;;;;;5031524;28;20025;-81
2023/08/17 02:42:13;;;;;;;5.95;2.97;;;18.10;99.90;;;;;;5031784;28;20030;-81
2023/08/17 02:44:39;;;;;;;2.67;1.95;;;18.30;99.90;;;;;;5031248;28;20029;-81
2023/08/17 02:47:05;;;;;;;3.83;2.15;;;18.00;99.90;;;;;;5032195;28;20061;-81
2023/08/17 02:49:30;;;;;;;5.00;2.30;;;18.00;99.90;;;;;;5031552;28;20440;-81
2023/08/17 02:51:56;;;;;;;5.78;2.28;;;18.10;99.90;;;;;;5030980;28;20018;-81
2023/08/17 02:54:22;;;;;;;4.43;2.20;;;18.10;99.90;;;;;;5033933;28;20025;-81
2023/08/17 02:56:47;;;;;;;2.70;2.08;;;18.30;99.90;;;;;;5035815;28;20483;-82
2023/08/17 02:59:13;;;;;;;5.38;2.60;;;18.10;99.90;;;;;;5035032;28;20025;-81
2023/08/17 03:01:39;;;;;;;5.60;2.58;;;18.10;99.90;;;;;;5035588;28;20113;-81
2023/08/17 03:04:04;;;;;;;5.47;3.05;;;18.10;99.90;;;;;;5035826;28;20021;-82
2023/08/17 03:06:30;;;;;;;3.97;2.17;;;18.00;99.90;;;;;;5034986;28;20480;-82
2023/08/17 03:08:55;;;;;;;9.70;3.08;;;18.00;99.90;;;;;;5035539;28;20045;-81
2023/08/17 03:11:21;;;;;;;5.80;2.50;;;18.00;99.90;;;;;;5035791;28;20500;-81
2023/08/17 03:13:48;;;;;;;2.63;2.20;;;18.00;99.90;;;;;;5034495;28;20025;-81
2023/08/17 03:16:14;;;;;;;5.97;3.17;;;18.30;99.90;;;;;;5035645;28;20029;-81
2023/08/17 03:18:40;;;;;;;4.57;2.65;;;18.00;99.90;;;;;;5035401;28;20029;-81
2023/08/17 03:21:05;;;;;;;4.55;2.60;;;18.10;99.90;;;;;;5034654;28;20021;-81
2023/08/17 03:23:32;;;;;;;8.93;2.60;;;17.90;99.90;;;;;;5035157;28;20061;-81
2023/08/17 03:25:58;;;;;;;7.00;2.70;;;17.90;99.90;;;;;;5034720;28;20025;-81
2023/08/17 03:28:25;;;;;;;5.05;2.60;;;17.90;99.90;;;;;;5035444;28;20545;-81
2023/08/17 03:30:50;;;;;;;3.42;2.35;;;17.90;99.90;;;;;;5034676;28;20463;-81
2023/08/17 03:33:16;;;;;;;8.32;3.20;;;18.20;99.90;;;;;;5034570;28;20029;-81
2023/08/17 03:35:41;;;;;;;4.85;2.80;;;18.00;99.90;;;;;;5034820;28;20022;-81
2023/08/17 03:38:07;;;;;;;5.97;2.83;;;17.90;99.90;;;;;;5035116;28;20030;-81
2023/08/17 03:40:32;;;;;;;7.82;3.60;;;17.90;99.90;;;;;;5034235;28;20023;-81
2023/08/17 03:42:58;;;;;;;2.75;2.47;;;17.90;99.90;;;;;;5035118;28;20181;-81
2023/08/17 03:45:23;;;;;;;4.78;2.13;;;17.90;99.90;;;;;;5035228;28;20350;-81
2023/08/17 03:47:49;;;;;;;2.63;2.42;;;18.90;99.90;;;;;;5033914;28;20037;-81
2023/08/17 03:50:15;;;;;;;5.22;2.60;;;18.60;99.90;;;;;;5035008;28;20022;-81
2023/08/17 03:52:40;;;;;;;3.53;2.15;;;17.90;99.90;;;;;;5034559;28;20037;-81
2023/08/17 03:55:07;;;;;;;5.63;3.00;;;17.90;99.90;;;;;;5034137;28;20444;-82
2023/08/17 03:57:33;;;;;;;3.92;2.83;;;17.90;99.90;;;;;;5034676;28;20381;-81
2023/08/17 03:59:58;;;;;;;6.75;3.00;;;17.90;99.90;;;;;;5034728;28;20021;-81
2023/08/17 04:02:24;;;;;;;5.20;2.35;;;17.90;99.90;;;;;;5034052;28;20035;-82
2023/08/17 04:04:49;;;;;;;5.75;2.63;;;17.90;99.90;;;;;;5033603;28;20033;-81
2023/08/17 04:07:22;;;;;;;5.15;2.67;;;17.90;99.90;;;;;;5034159;28;20044;-81
2023/08/17 04:09:48;;;;;;;6.25;2.40;;;18.50;99.90;;;;;;5033429;28;20025;-81
2023/08/17 04:12:14;;;;;;;3.72;2.72;;;17.80;99.90;;;;;;5034659;28;20024;-81
2023/08/17 04:14:39;;;;;;;5.13;2.92;;;17.80;99.90;;;;;;5034299;28;20025;-81
2023/08/17 04:17:05;;;;;;;11.32;3.35;;;17.80;99.90;;;;;;5033726;28;20453;-81
2023/08/17 04:19:30;;;;;;;4.63;2.50;;;18.10;99.90;;;;;;5034091;28;20049;-81
2023/08/17 04:21:56;;;;;;;6.82;2.92;;;17.70;99.90;;;;;;5033992;28;20029;-81
2023/08/17 04:24:21;;;;;;;6.13;2.92;;;18.00;99.90;;;;;;5033812;28;20036;-81
2023/08/17 04:26:47;;;;;;;7.07;2.47;;;18.40;99.90;;;;;;5034033;28;20461;-81
2023/08/17 04:29:13;;;;;;;4.40;2.38;;;17.90;99.90;;;;;;5034476;28;20033;-81
2023/08/17 04:31:38;;;;;;;4.30;2.55;;;17.70;99.90;;;;;;5033226;28;20467;-81
2023/08/17 04:34:05;;;;;;;7.32;2.88;;;18.10;99.90;;;;;;5034119;28;20032;-81
2023/08/17 04:36:30;;;;;;;6.80;2.17;;;17.70;99.90;;;;;;5033350;28;20034;-81
2023/08/17 04:38:56;;;;;;;6.43;3.20;;;17.70;99.90;;;;;;5034255;28;20025;-81
2023/08/17 04:41:21;;;;;;;8.07;2.75;;;17.90;99.90;;;;;;5034330;28;20021;-81
2023/08/17 04:43:49;;;;;;;6.13;2.42;;;17.70;99.90;;;;;;5033402;28;20053;-81
2023/08/17 04:46:14;;;;;;;10.13;2.72;;;17.70;99.90;;;;;;5034113;28;20034;-81
2023/08/17 04:48:40;;;;;;;6.55;2.70;;;17.70;99.90;;;;;;5033544;28;20044;-81
2023/08/17 04:51:06;;;;;;;3.63;1.95;;;18.10;99.90;;;;;;5032776;28;20022;-81
2023/08/17 04:53:31;;;;;;;6.40;2.67;;;17.70;99.90;;;;;;5033191;28;20423;-81
2023/08/17 04:55:59;;;;;;;4.65;2.58;;;17.70;99.90;;;;;;5033849;28;20025;-81
2023/08/17 04:58:24;;;;;;;4.60;1.98;;;17.70;99.90;;;;;;5032946;28;20392;-82
2023/08/17 05:00:51;;;;;;;4.00;2.33;;;18.00;99.90;;;;;;5032967;28;20025;-81
2023/08/17 05:03:16;;;;;;;5.45;2.30;;;17.70;99.90;;;;;;5033712;28;20041;-81
2023/08/17 05:05:42;;;;;;;3.40;2.17;;;17.70;99.90;;;;;;5032453;28;20342;-82
2023/08/17 05:08:08;;;;;;;6.47;2.38;;;17.70;99.90;;;;;;5033328;28;20095;-81
2023/08/17 05:10:33;;;;;;;4.55;2.63;;;17.70;99.90;;;;;;5033030;28;20355;-81
2023/08/17 05:12:59;;;;;;;3.30;1.75;;;17.70;99.90;;;;;;5032194;28;20027;-81
2023/08/17 05:15:25;;;;;;;4.00;2.38;;;17.60;99.90;;;;;;5033315;28;20025;-81
2023/08/17 05:17:50;;;;;;;6.22;1.98;;;17.60;99.90;;;;;;5032579;28;20029;-81
2023/08/17 05:20:16;;;;;;;8.00;2.85;;;17.70;99.90;;;;;;5032443;28;20458;-81
2023/08/17 05:22:42;;;;;;;7.88;2.20;;;17.70;99.90;;;;;;5032994;28;20108;-81
2023/08/17 05:25:07;;;;;;;7.03;2.58;;;18.20;99.90;;;;;;5032833;28;20028;-81
2023/08/17 05:27:33;;;;;;;3.97;2.17;;;17.70;99.90;;;;;;5031532;28;20033;-81
2023/08/17 05:29:59;;;;;;;3.20;2.25;;;17.70;99.90;;;;;;5032870;28;20500;-81
2023/08/17 05:32:24;;;;;;;4.65;2.05;;;17.80;99.90;;;;;;5033097;28;20022;-81
2023/08/17 05:34:50;;;;;;;5.00;2.20;;;18.20;99.90;;;;;;5032012;28;20110;-81
2023/08/17 05:37:16;;;;;;;4.63;1.70;;;18.10;99.90;;;;;;5032794;28;20021;-81
2023/08/17 05:39:42;;;;;;;4.68;2.28;;;17.80;99.90;;;;;;5031612;28;20112;-81
2023/08/17 05:42:09;;;;;;;8.50;2.13;;;17.60;99.90;;;;;;5032937;28;20175;-81
2023/08/17 05:44:35;;;;;;;4.07;2.28;;;17.70;99.90;;;;;;5032490;28;20036;-81
2023/08/17 05:47:00;;;;;;;3.50;1.73;;;17.70;99.90;;;;;;5031818;28;20037;-81
2023/08/17 05:49:27;;;;;;;4.47;1.98;;;17.60;99.90;;;;;;5032522;28;20029;-81
2023/08/17 05:51:53;;;;;;;5.63;1.77;;;17.90;99.90;;;;;;5032222;28;20026;-82
2023/08/17 05:54:19;;;;;;;5.40;2.10;;;17.70;99.90;;;;;;5032049;28;20087;-81
2023/08/17 05:56:46;;;;;;;2.92;2.00;;;17.70;99.90;;;;;;5032222;28;20529;-81
2023/08/17 05:59:13;;;;;;;4.65;2.40;;;17.70;99.90;;;;;;5032381;28;20029;-82
2023/08/17 06:01:38;;;;;;;4.18;1.80;;;17.80;99.90;;;;;;5031364;28;20167;-81
2023/08/17 06:04:05;;;;;;;4.65;1.75;;;17.70;99.90;;;;;;5032285;28;20468;-81
2023/08/17 06:06:30;;;;;;;5.78;2.40;;;17.70;99.90;;;;;;5032134;28;20095;-82
2023/08/17 06:08:56;;;;;;;5.82;2.00;;;17.80;99.90;;;;;;5031497;28;20073;-81
2023/08/17 06:11:23;;;;;;;6.43;2.30;;;17.80;99.90;;;;;;5032235;28;20030;-81
2023/08/17 06:13:48;;;;;;;7.35;2.25;;;17.70;99.90;;;;;;5031939;28;20413;-81
2023/08/17 06:16:14;;;;;;;5.35;2.20;;;17.80;99.90;;;;;;5031571;28;20022;-81
2023/08/17 06:18:39;;;;;;;4.93;2.17;;;17.80;99.90;;;;;;5031812;28;20488;-81
2023/08/17 06:21:05;;;;;;;7.25;2.25;;;17.90;99.90;;;;;;5031993;28;20033;-81
2023/08/17 06:23:30;;;;;;;6.13;2.28;;;17.90;99.90;;;;;;5030970;28;20058;-81
2023/08/17 06:25:58;;;;;;;7.57;2.33;;;17.90;99.90;;;;;;5031953;28;20029;-81
2023/08/17 06:28:24;;;;;;;1.73;1.63;;;17.90;99.90;;;;;;5031481;28;20034;-81
2023/08/17 06:30:54;;;;;;;5.20;1.88;;;17.90;99.90;;;;;;5030560;28;20124;-81
2023/08/17 06:33:20;;;;;;;6.07;1.93;;;18.00;99.90;;;;;;5031855;28;20105;-81
2023/08/17 06:35:45;;;;;;;3.88;1.95;;;18.10;99.90;;;;;;5031795;28;20026;-81
2023/08/17 06:38:11;;;;;;;2.58;1.88;;;18.00;99.90;;;;;;5031330;28;20025;-81
2023/08/17 06:40:37;;;;;;;2.95;1.83;;;18.00;99.90;;;;;;5031847;28;20025;-81
2023/08/17 06:43:03;;;;;;;7.97;2.03;;;18.00;99.90;;;;;;5031166;28;20029;-81
2023/08/17 06:45:30;;;;;;;5.03;2.00;;;18.00;99.90;;;;;;5031467;28;20033;-82
2023/08/17 06:47:56;;;;;;;3.97;2.00;;;18.70;99.90;;;;;;5031384;28;20037;-81
2023/08/17 06:50:22;;;;;;;4.72;1.85;;;18.10;99.90;;;;;;5031146;28;20025;-81
2023/08/17 06:52:47;;;;;;;4.10;1.98;;;19.10;99.90;;;;;;5031488;28;20422;-81
2023/08/17 06:55:13;;;;;;;5.25;2.13;;;18.10;99.90;;;;;;5031978;28;20017;-81
2023/08/17 06:57:38;;;;;;;4.32;2.08;;;18.10;99.90;;;;;;5030740;28;20029;-81
2023/08/17 07:00:05;;;;;;;5.43;2.35;;;18.10;99.90;;;;;;5031776;28;20374;-81
2023/08/17 07:02:31;;;;;;;7.53;2.30;;;18.00;99.90;;;;;;5031592;28;20057;-81
2023/08/17 07:04:57;;;;;;;9.77;3.10;;;18.00;99.90;;;;;;5030999;28;20072;-81
2023/08/17 07:07:22;;;;;;;5.85;2.10;;;18.10;99.90;;;;;;5031717;28;20041;-81
2023/08/17 07:09:48;;;;;;;6.40;2.05;;;18.20;99.90;;;;;;5031537;28;20202;-81
2023/08/17 07:12:13;;;;;;;7.32;3.15;;;18.10;99.90;;;;;;5031114;28;20022;-81
2023/08/17 07:14:39;;;;;;;7.10;2.38;;;18.40;99.90;;;;;;5031185;28;20036;-81
2023/08/17 07:17:04;;;;;;;5.03;2.35;;;18.10;99.90;;;;;;5031135;28;20484;-81
2023/08/17 07:19:30;;;;;;;5.47;2.38;;;18.30;99.90;;;;;;5030772;28;20029;-81
2023/08/17 07:21:55;;;;;;;4.88;2.20;;;18.20;99.90;;;;;;5031476;28;20026;-81
2023/08/17 07:24:21;;;;;;;7.20;2.63;;;18.20;99.90;;;;;;5031623;28;20485;-81
2023/08/17 07:26:47;;;;;;;6.72;2.88;;;18.20;99.90;;;;;;5030404;28;20028;-81
2023/08/17 07:29:12;;;;;;;6.07;2.83;;;18.40;99.90;;;;;;5031402;28;20112;-81
2023/08/17 07:31:39;;;;;;;10.35;3.67;;;18.30;99.90;;;;;;5030837;28;20041;-81
2023/08/17 07:34:05;;;;;;;4.13;2.53;;;18.40;99.90;;;;;;5030771;28;20032;-81
2023/08/17 07:36:32;;;;;;;7.85;2.80;;;19.20;99.90;;;;;;5031199;28;20029;-81
2023/08/17 07:38:57;;;;;;;7.85;2.95;;;18.60;99.90;;;;;;5031196;28;20029;-81
2023/08/17 07:41:23;;;;;;;4.93;2.25;;;18.50;99.90;;;;;;5034142;28;20377;-81
2023/08/17 07:43:48;;;;;;;10.60;2.92;;;18.50;99.90;;;;;;5034787;28;20033;-81
2023/08/17 07:46:14;;;;;;;4.97;2.35;;;18.50;99.90;;;;;;5034346;28;20022;-81
2023/08/17 07:48:39;;;;;;;6.28;2.92;;;18.50;99.90;;;;;;5034564;28;20116;-81
2023/08/17 07:51:05;;;;;;;7.20;2.60;;;18.80;99.90;;;;;;5035058;28;20032;-81
2023/08/17 07:53:30;;;;;;;14.07;3.50;;;18.50;99.90;;;;;;5034130;28;20029;-80
2023/08/17 07:55:56;;;;;;;5.60;3.00;;;18.50;99.90;;;;;;5034922;28;20405;-82
2023/08/17 07:58:22;;;;;;;6.70;3.00;;;18.40;99.90;;;;;;5035115;28;20033;-81
2023/08/17 08:00:47;;;;;;;11.18;2.88;;;18.40;99.90;;;;;;5033496;28;20027;-81
2023/08/17 08:03:14;;;;;;;6.78;3.60;;;18.90;99.90;;;;;;5034651;28;20053;-81
2023/08/17 08:05:40;;;;;;;7.18;3.33;;;18.40;99.90;;;;;;5034415;28;20105;-81
2023/08/17 08:08:06;;;;;;;5.85;2.67;;;19.00;99.90;;;;;;5033685;28;20125;-81
2023/08/17 08:10:31;;;;;;;7.82;3.33;;;18.40;99.90;;;;;;5034276;28;20026;-81
2023/08/17 08:12:57;;;;;;;4.85;2.88;;;18.50;99.90;;;;;;5034279;28;20026;-81
2023/08/17 08:15:23;;;;;;;4.68;3.10;;;18.50;99.90;;;;;;5034037;28;20409;-81
2023/08/17 08:17:48;;;;;;;7.05;2.67;;;18.50;99.90;;;;;;5033969;28;20465;-82
2023/08/17 08:20:14;;;;;;;4.32;3.05;;;18.60;99.90;;;;;;5034395;28;20021;-81
2023/08/17 08:22:40;;;;;;;7.20;3.40;;;18.60;99.90;;;;;;5033053;28;20034;-81
2023/08/17 08:25:05;;;;;;;8.65;2.67;;;19.20;99.90;;;;;;5033947;28;20025;-81
2023/08/17 08:27:31;;;;;;;7.05;2.95;;;18.60;99.90;;;;;;5033786;28;20033;-81
2023/08/17 08:29:57;;;;;;;6.78;2.95;;;18.70;99.90;;;;;;5032980;28;20481;-81
2023/08/17 08:32:23;;;;;;;3.58;2.38;;;18.70;99.90;;;;;;5034297;28;20385;-81
2023/08/17 08:34:48;;;;;;;6.30;2.90;;;18.70;99.90;;;;;;5033901;28;20029;-81
2023/08/17 08:37:14;;;;;;;5.65;2.45;;;18.80;99.90;;;;;;5033967;28;20159;-81
2023/08/17 08:39:54;;;;;;;9.80;3.63;;;18.80;99.90;;;;;;5033828;28;20044;-81
2023/08/17 08:42:20;;;;;;;6.75;2.67;;;18.80;99.90;;;;;;5033776;28;20033;-82
2023/08/17 08:44:46;;;;;;;6.00;3.13;;;18.90;99.90;;;;;;5032740;28;20033;-81
2023/08/17 08:47:13;;;;;;;7.00;2.58;;;18.90;99.90;;;;;;5033737;28;20124;-81
2023/08/17 08:49:40;;;;;;;7.50;3.20;;;19.50;99.90;;;;;;5032847;28;20457;-82
2023/08/17 08:52:12;;;;;;;6.88;2.97;;;19.00;99.90;;;;;;5033222;28;20061;-82
2023/08/17 08:54:41;;;;;;;3.45;2.58;;;19.00;99.90;;;;;;5033241;28;20083;-81
2023/08/17 08:57:12;;;;;;;7.57;2.78;;;19.30;99.90;;;;;;5032844;28;20075;-81
2023/08/17 08:59:43;;;;;;;3.22;2.53;;;19.40;99.90;;;;;;5033484;28;20026;-82
2023/08/17 09:02:15;;;;;;;6.00;2.50;;;19.10;99.90;;;;;;5033584;28;20465;-81
2023/08/17 09:04:45;;;;;;;10.10;3.47;;;19.10;99.90;;;;;;5032408;28;20026;-81
2023/08/17 09:07:12;;;;;;;7.00;3.30;;;19.10;99.90;;;;;;5033379;28;20038;-81
2023/08/17 09:09:38;;;;;;;12.20;2.95;;;19.00;99.90;;;;;;5032946;28;20351;-82
2023/08/17 09:12:06;;;;;;;8.15;3.50;;;19.30;99.90;;;;;;5032725;28;20121;-81
2023/08/17 09:14:32;;;;;;;3.38;2.80;;;19.10;99.90;;;;;;5033288;28;20021;-81
2023/08/17 09:16:58;;;;;;;7.65;2.85;;;19.20;99.90;;;;;;5033170;28;20036;-81
2023/08/17 09:19:25;;;;;;;7.30;2.85;;;19.30;99.90;;;;;;5032640;28;20025;-81
2023/08/17 09:21:50;;;;;;;3.13;2.83;;;19.40;99.90;;;;;;5032729;28;20034;-82
2023/08/17 09:24:16;;;;;;;6.47;2.67;;;19.40;99.90;;;;;;5033020;28;20018;-82
2023/08/17 09:26:42;;;;;;;9.35;3.10;;;19.50;99.90;;;;;;5032109;28;20151;-82
2023/08/17 09:29:21;;;;;;;5.85;2.28;;;19.50;99.90;;;;;;5032830;28;20044;-82
2023/08/17 09:31:47;;;;;;;5.93;2.70;;;19.60;99.90;;;;;;5032222;28;20045;-82
2023/08/17 09:34:14;;;;;;;4.32;3.03;;;19.60;99.90;;;;;;5032920;28;20113;-82
2023/08/17 09:36:40;;;;;;;5.40;2.45;;;19.60;99.90;;;;;;5032497;28;20041;-82
2023/08/17 09:39:05;;;;;;;10.57;3.10;;;19.60;99.90;;;;;;5032488;28;20030;-82
2023/08/17 09:41:39;;;;;;;7.32;3.20;;;19.70;99.90;;;;;;5032529;28;20026;-82
2023/08/17 09:44:05;;;;;;;3.63;2.63;;;19.70;99.90;;;;;;5032913;28;20033;-82
2023/08/17 09:46:31;;;;;;;5.43;2.55;;;19.70;99.90;;;;;;5031795;28;20037;-82
2023/08/17 09:48:57;;;;;;;6.22;2.65;;;19.70;99.90;;;;;;5032538;28;20366;-82
2023/08/17 09:51:23;;;;;;;6.07;2.35;;;19.80;99.90;;;;;;5032695;28;20499;-82
2023/08/17 09:53:55;;;;;;;3.80;2.10;;;19.70;99.90;;;;;;5031679;28;20037;-82
2023/08/17 09:56:24;;;;;;;4.53;2.28;;;19.90;99.90;;;;;;5032746;28;20029;-82
2023/08/17 09:58:50;;;;;;;9.45;2.50;;;19.90;99.90;;;;;;5032028;28;20030;-82
2023/08/17 10:01:17;;;;;;;5.10;2.55;;;19.90;99.90;;;;;;5031613;28;20562;-82
2023/08/17 10:03:45;;;;;;;10.05;3.13;;;20.00;99.90;;;;;;5031237;28;20465;-82
2023/08/17 10:06:16;;;;;;;5.05;2.42;;;20.10;99.90;;;;;;5032507;28;20030;-82
2023/08/17 10:08:48;;;;;;;4.25;2.78;;;20.00;99.90;;;;;;5031380;28;20417;-82
2023/08/17 10:11:18;;;;;;;8.02;3.10;;;20.00;99.90;;;;;;5032334;28;20030;-82
2023/08/17 10:13:51;;;;;;;;;;;20.10;99.90;;;;;;5032437;28;20072;-82
2023/08/17 10:16:24;;;;;;;6.35;2.67;;;20.10;99.90;;;;;;5031429;28;20403;-82
2023/08/17 10:19:31;;;;;;;5.18;3.30;;;20.10;99.90;;;;;;5031796;28;20105;-82
2023/08/17 10:22:16;;;;;;;8.32;2.95;;;20.20;99.90;;;;;;5020448;28;20033;-82
2023/08/17 10:24:43;;;;;;;7.78;2.78;;;20.30;99.90;;;;;;5031652;28;20034;-82
2023/08/17 10:27:10;;;;;;;6.18;2.85;;;20.30;99.90;;;;;;5032250;28;20040;-81
2023/08/17 10:29:39;;;;;;;4.35;2.65;;;20.30;99.90;;;;;;5031010;28;20092;-81
2023/08/17 10:32:07;;;;;;;7.60;2.72;;;20.30;99.90;;;;;;5032391;28;20421;-82
2023/08/17 10:34:34;;;;;;;5.50;2.55;;;20.30;99.90;;;;;;5032011;28;20029;-82
2023/08/17 10:37:01;;;;;;;4.57;2.63;;;21.00;99.90;;;;;;5031253;28;20021;-82
2023/08/17 10:39:28;;;;;;;5.85;3.38;;;20.40;99.90;;;;;;5032007;28;20033;-81
2023/08/17 10:41:55;;;;;;;6.60;2.75;;;20.40;99.90;;;;;;5031735;28;20021;-81
2023/08/17 10:44:45;;;;;;;3.40;2.42;;;20.40;99.90;;;;;;5031305;28;20052;-81
2023/08/17 10:47:27;;;;;;;5.07;2.88;;;20.40;99.90;;;;;;5031699;28;20041;-81
2023/08/17 10:49:58;;;;;;;5.43;2.97;;;20.50;99.90;;;;;;5030464;28;20061;-83
2023/08/17 10:52:35;;;;;;;4.53;3.03;;;20.50;99.90;;;;;;5031689;28;20032;-83
2023/08/17 10:55:07;;;;;;;4.38;3.42;;;20.50;99.90;;;;;;5031758;28;20030;-82
2023/08/17 10:57:43;;;;;;;6.70;3.55;;;20.50;99.90;;;;;;5030826;28;20029;-82
2023/08/17 11:00:27;;;;;;;7.10;3.53;;;20.60;99.90;;;;;;5031609;28;20033;-82
2023/08/17 11:02:54;;;;;;;7.82;3.10;;;20.60;99.90;;;;;;5031152;28;20025;-82
2023/08/17 11:05:38;;;;;;;7.35;2.80;;;20.90;99.90;;;;;;5030761;28;20465;-82
2023/08/17 11:08:10;;;;;;;7.55;2.92;;;20.60;99.90;;;;;;5031422;28;20045;-82
2023/08/17 11:10:37;;;;;;;5.60;3.13;;;20.70;99.90;;;;;;5030738;28;20022;-82
2023/08/17 11:13:03;;;;;;;6.80;3.30;;;20.60;99.90;;;;;;5031910;28;20033;-83
2023/08/17 11:15:44;;;;;;;4.75;3.13;;;20.70;99.90;;;;;;5033602;28;20049;-82
2023/08/17 11:18:11;;;;;;;8.95;3.00;;;20.80;99.90;;;;;;5034656;28;20088;-82
2023/08/17 11:20:39;;;;;;;5.25;2.83;;;20.80;99.90;;;;;;5035105;28;20071;-83
2023/08/17 11:23:06;;;;;;;6.45;2.72;;;20.80;99.90;;;;;;5035803;28;20029;-83
2023/08/17 11:25:32;;;;;;;8.32;3.15;;;20.90;99.90;;;;;;5034301;28;20407;-82
2023/08/17 11:27:59;;;;;;;9.60;2.72;;;21.00;99.90;;;;;;5035111;28;20034;-82
2023/08/17 11:30:27;;;;;;;5.30;2.28;;;20.90;99.90;;;;;;5035204;28;20401;-82
2023/08/17 11:32:54;;;;;;;7.38;2.67;;;20.90;99.90;;;;;;5034363;28;20036;-82
2023/08/17 11:35:21;;;;;;;6.38;3.03;;;20.90;99.90;;;;;;5035155;28;20486;-82
2023/08/17 11:37:50;;;;;;;5.43;3.17;;;20.90;99.90;;;;;;5034753;28;20044;-82
2023/08/17 11:40:16;;;;;;;7.20;2.88;;;20.80;99.90;;;;;;5034685;28;20025;-82
2023/08/17 11:42:43;;;;;;;8.20;2.80;;;21.00;99.90;;;;;;5034681;28;20029;-82
2023/08/17 11:45:09;;;;;;;8.10;3.28;;;20.90;99.90;;;;;;5035138;28;20026;-82
2023/08/17 11:47:36;;;;;;;3.80;3.30;;;20.90;99.90;;;;;;5034068;28;20157;-82
2023/08/17 11:50:02;;;;;;;4.18;3.17;;;20.90;99.90;;;;;;5034845;28;20025;-82
2023/08/17 11:52:29;;;;;;;5.90;3.15;;;20.90;99.90;;;;;;5034493;28;20025;-82
2023/08/17 11:54:56;;;;;;;5.47;2.92;;;21.60;99.90;;;;;;5034781;28;20022;-82
2023/08/17 11:57:22;;;;;;;14.93;3.78;;;21.00;99.90;;;;;;5035234;28;20112;-82
2023/08/17 11:59:47;;;;;;;6.57;3.33;;;21.00;99.90;;;;;;5033827;28;20144;-82
2023/08/17 12:02:13;;;;;;;5.43;3.45;;;21.00;99.90;;;;;;5034588;28;20325;-82
2023/08/17 12:04:39;;;;;;;8.73;3.58;;;21.00;99.90;;;;;;5034098;28;20029;-82
2023/08/17 12:07:05;;;;;;;7.03;3.63;;;21.00;99.90;;;;;;5033845;28;20032;-82
2023/08/17 12:09:34;;;;;;;13.10;4.18;;;21.00;99.90;;;;;;5034142;28;20025;-82
2023/08/17 12:12:01;;;;;;;7.82;4.43;;;20.90;99.90;;;;;;5034335;28;20408;-82
2023/08/17 12:14:28;;;;;;;8.43;3.75;;;20.90;99.90;;;;;;5033692;28;20036;-81
2023/08/17 12:16:54;;;;;;;8.57;3.83;;;20.80;99.90;;;;;;5033983;28;20523;-81
2023/08/17 12:19:23;;;;;;;4.35;3.38;;;20.90;99.90;;;;;;5034528;28;20083;-81
2023/08/17 12:21:49;;;;;;;5.07;3.65;;;20.90;99.90;;;;;;5033499;28;20029;-81
2023/08/17 12:24:16;;;;;;;6.80;3.25;;;21.00;99.90;;;;;;5034375;28;20080;-81
2023/08/17 12:26:43;;;;;;;4.85;3.45;;;20.90;99.90;;;;;;5033020;28;20038;-81
2023/08/17 12:29:09;;;;;;;3.45;3.15;;;21.00;99.90;;;;;;5033622;28;20114;-82
2023/08/17 12:31:35;;;;;;;6.53;4.15;;;21.00;99.90;;;;;;5033768;28;20049;-82
2023/08/17 12:34:01;;;;;;;9.43;4.18;;;21.50;99.90;;;;;;5034165;28;20025;-82
2023/08/17 12:36:26;;;;;;;8.27;3.88;;;21.00;99.90;;;;;;5033481;28;20048;-82
2023/08/17 12:38:52;;;;;;;10.45;4.45;;;21.10;99.90;;;;;;5033795;28;20044;-82
2023/08/17 12:41:18;;;;;;;12.98;3.95;;;21.00;99.90;;;;;;5034133;28;20032;-82
2023/08/17 12:43:44;;;;;;;9.18;3.83;;;21.00;99.90;;;;;;5032930;28;20056;-82
2023/08/17 12:46:10;;;;;;;7.65;3.88;;;21.10;99.90;;;;;;5033721;28;20060;-82